Time;durP1;ratioP1;P1;durP2;ratioP2;P2;SDS_P1;SDS_P2;PMS_P1;PMS_P2;Temp;Humidity;BMP_temperature;BMP_pressure;BME280_temperature;BME280_humidity;BME280_pressure;Samples;Min_cycle;Max_cycle;Signal;HPM_P1;HPM_P2
2022/09/28 00:02:17;;;;;;;1.57;1.47;;;;;;;-145.23;100.00;58621.06;4978597;28;20246;-51
2022/09/28 00:04:43;;;;;;;1.70;1.60;;;;;;;-145.23;100.00;58621.06;4978388;28;20338;-51
2022/09/28 00:07:10;;;;;;;2.33;1.60;;;;;;;-145.23;100.00;58621.06;4984792;28;20238;-51
2022/09/28 00:09:37;;;;;;;1.70;1.47;;;;;;;-145.23;100.00;58621.06;4982675;28;20266;-51
2022/09/28 00:12:05;;;;;;;3.33;1.80;;;;;;;-145.23;100.00;58621.06;4979124;28;20238;-50
2022/09/28 00:14:33;;;;;;;2.23;2.03;;;;;;;-145.23;100.00;58621.06;4972429;28;20236;-51
2022/09/28 00:16:59;;;;;;;2.60;2.40;;;;;;;-145.23;100.00;58621.06;4975387;28;20242;-51
2022/09/28 00:19:26;;;;;;;1.80;1.70;;;;;;;-145.23;100.00;58621.06;4979415;28;20241;-51
2022/09/28 00:21:52;;;;;;;1.93;1.83;;;;;;;-145.23;100.00;58621.06;4976128;28;20233;-51
2022/09/28 00:24:19;;;;;;;2.93;2.07;;;;;;;-145.23;100.00;58621.06;4969096;28;20246;-52
2022/09/28 00:26:47;;;;;;;3.10;2.20;;;;;;;-145.23;100.00;58621.06;4980280;28;20234;-51
2022/09/28 00:29:20;;;;;;;4.27;2.17;;;;;;;-145.23;100.00;58621.06;4976939;28;20320;-52
2022/09/28 00:31:49;;;;;;;2.50;2.30;;;;;;;-145.23;100.00;58621.06;4972914;28;20238;-53
2022/09/28 00:34:15;;;;;;;2.10;1.77;;;;;;;-145.23;100.00;58621.06;4981740;28;20610;-54
2022/09/28 00:36:44;;;;;;;1.87;1.77;;;;;;;-145.23;100.00;58621.06;4981939;28;20246;-52
2022/09/28 00:39:11;;;;;;;2.27;2.10;;;;;;;-145.23;100.00;58621.06;4978536;28;20681;-52
2022/09/28 00:41:37;;;;;;;2.50;2.23;;;;;;;-145.23;100.00;58621.06;4981219;28;20735;-51
2022/09/28 00:44:35;;;;;;;2.40;1.97;;;;;;;-145.23;100.00;58621.06;4978740;28;20247;-52
2022/09/28 00:47:13;;;;;;;2.80;2.60;;;;;;;-145.23;100.00;58621.06;4979385;28;20260;-52
2022/09/28 00:49:42;;;;;;;2.50;2.30;;;;;;;-145.23;100.00;58621.06;4986416;28;20244;-51
2022/09/28 00:52:11;;;;;;;2.10;2.00;;;;;;;-145.23;100.00;58621.06;4986805;28;20337;-52
2022/09/28 00:54:38;;;;;;;2.33;2.10;;;;;;;-145.23;100.00;58621.06;4980815;28;20245;-51
2022/09/28 00:57:05;;;;;;;2.47;2.07;;;;;;;-145.23;100.00;58621.06;4978470;28;20268;-52
2022/09/28 00:59:31;;;;;;;2.80;2.60;;;;;;;-145.23;100.00;58621.06;4982573;28;20538;-52
2022/09/28 01:01:58;;;;;;;3.07;2.77;;;;;;;-145.23;100.00;58621.06;4984907;28;20233;-54
2022/09/28 01:04:26;;;;;;;2.73;2.53;;;;;;;-145.23;100.00;58621.06;4976809;28;20788;-53
2022/09/28 01:06:52;;;;;;;2.77;2.53;;;;;;;-145.23;100.00;58621.06;4982835;28;20238;-52
2022/09/28 01:09:19;;;;;;;2.63;2.43;;;;;;;-145.23;100.00;58621.06;4981045;28;20240;-50
2022/09/28 01:11:47;;;;;;;2.90;2.63;;;;;;;-145.23;100.00;58621.06;4981128;28;20248;-51
2022/09/28 01:14:18;;;;;;;3.07;2.83;;;;;;;-145.23;100.00;58621.06;4980297;28;20242;-52
2022/09/28 01:16:50;;;;;;;7.17;2.57;;;;;;;-145.23;100.00;58621.06;4985250;28;20265;-50
2022/09/28 01:19:33;;;;;;;2.67;2.43;;;;;;;-145.23;100.00;58621.06;4983673;28;20244;-52
2022/09/28 01:22:11;;;;;;;2.67;2.47;;;;;;;-145.23;100.00;58621.06;4982938;28;20654;-51
2022/09/28 01:24:40;;;;;;;2.10;2.00;;;;;;;-145.23;100.00;58621.06;4982609;28;20642;-53
2022/09/28 01:27:13;;;;;;;2.03;1.93;;;;;;;-145.23;100.00;58621.06;4980839;28;20257;-51
2022/09/28 01:29:50;;;;;;;2.20;2.10;;;;;;;-145.23;100.00;58621.06;4976000;28;20612;-53
2022/09/28 01:32:24;;;;;;;2.30;2.10;;;;;;;-145.23;100.00;58621.06;4986253;28;20238;-51
2022/09/28 01:34:55;;;;;;;1.97;1.83;;;;;;;-145.23;100.00;58621.06;4985944;28;20241;-53
2022/09/28 01:37:26;;;;;;;2.10;1.93;;;;;;;-145.23;100.00;58621.06;4985010;28;20241;-53
2022/09/28 01:39:54;;;;;;;2.40;2.20;;;;;;;-145.23;100.00;58621.06;4984171;28;20313;-53
2022/09/28 01:42:24;;;;;;;1.93;1.83;;;;;;;-145.23;100.00;58621.06;4985980;28;20242;-53
2022/09/28 01:44:52;;;;;;;2.00;1.90;;;;;;;-145.23;100.00;58621.06;4980536;28;20238;-53
2022/09/28 01:47:21;;;;;;;2.13;2.00;;;;;;;-145.23;100.00;58621.06;4978224;28;20238;-51
2022/09/28 01:49:50;;;;;;;1.70;1.60;;;;;;;-145.23;100.00;58621.06;4981977;28;20230;-51
2022/09/28 01:52:21;;;;;;;1.93;1.83;;;;;;;-145.23;100.00;58621.06;4981280;28;20242;-53
2022/09/28 01:54:52;;;;;;;4.67;2.00;;;;;;;-145.23;100.00;58621.06;4979635;28;20261;-50
2022/09/28 01:57:23;;;;;;;2.00;1.90;;;;;;;-145.23;100.00;58621.06;4974766;28;20240;-50
2022/09/28 01:59:53;;;;;;;1.83;1.73;;;;;;;-145.23;100.00;58621.06;4982013;28;20253;-51
2022/09/28 02:02:23;;;;;;;2.00;1.90;;;;;;;-145.23;100.00;58621.06;4982896;28;20249;-52
2022/09/28 02:04:53;;;;;;;2.27;2.07;;;;;;;-145.23;100.00;58621.06;4984368;28;20246;-50
2022/09/28 02:07:22;;;;;;;3.30;2.40;;;;;;;-145.23;100.00;58621.06;4982417;28;20253;-52
2022/09/28 02:09:54;;;;;;;2.80;2.60;;;;;;;-145.23;100.00;58621.06;4982362;28;20233;-53
2022/09/28 02:12:25;;;;;;;2.63;2.43;;;;;;;-145.23;100.00;58621.06;4982446;28;20308;-52
2022/09/28 02:14:53;;;;;;;2.47;2.27;;;;;;;-145.23;100.00;58621.06;4980001;28;20241;-52
2022/09/28 02:17:20;;;;;;;2.80;2.60;;;;;;;-145.23;100.00;58621.06;4980471;28;20242;-51
2022/09/28 02:19:47;;;;;;;3.23;3.03;;;;;;;-145.23;100.00;58621.06;4981689;28;20399;-52
2022/09/28 02:22:22;;;;;;;4.87;2.77;;;;;;;-145.23;100.00;58621.06;4984625;28;20226;-51
2022/09/28 02:24:54;;;;;;;3.50;3.20;;;;;;;-145.23;100.00;58621.06;4982030;28;20250;-52
2022/09/28 02:27:29;;;;;;;2.80;2.60;;;;;;;-145.23;100.00;58621.06;4982195;28;20699;-54
2022/09/28 02:29:56;;;;;;;3.43;3.13;;;;;;;-145.23;100.00;58621.06;4978928;28;20296;-51
2022/09/28 02:32:23;;;;;;;3.27;2.77;;;;;;;-145.23;100.00;58621.06;4981818;28;20753;-52
2022/09/28 02:34:49;;;;;;;3.93;3.57;;;;;;;-145.23;100.00;58621.06;4979905;28;20240;-51
2022/09/28 02:37:16;;;;;;;3.83;2.93;;;;;;;-145.23;100.00;58621.06;4982039;28;20234;-54
2022/09/28 02:39:42;;;;;;;3.40;3.10;;;;;;;-145.23;100.00;58621.06;4974397;28;20250;-53
2022/09/28 02:42:14;;;;;;;5.27;3.70;;;;;;;-145.23;100.00;58621.06;4983136;28;20230;-51
2022/09/28 02:44:51;;;;;;;3.37;3.10;;;;;;;-145.23;100.00;58621.06;4981703;28;20234;-52
2022/09/28 02:47:27;;;;;;;4.27;3.47;;;;;;;-145.23;100.00;58621.06;4977714;28;20232;-51
2022/09/28 02:50:00;;;;;;;3.67;3.37;;;;;;;-145.23;100.00;58621.06;4973627;28;20234;-50
2022/09/28 02:52:39;;;;;;;3.30;3.00;;;;;;;-145.23;100.00;58621.06;4976730;28;20246;-54
2022/09/28 02:55:22;;;;;;;3.23;2.93;;;;;;;-145.23;100.00;58621.06;4979480;28;20229;-56
2022/09/28 02:58:03;;;;;;;3.87;3.17;;;;;;;-145.23;100.00;58621.06;4980525;28;20234;-52
2022/09/28 03:00:32;;;;;;;3.60;3.30;;;;;;;-145.23;100.00;58621.06;4979735;28;20226;-57
2022/09/28 03:03:04;;;;;;;3.67;3.37;;;;;;;-145.23;100.00;58621.06;4979333;28;20254;-50
2022/09/28 03:05:35;;;;;;;4.53;4.13;;;;;;;-145.23;100.00;58621.06;4981702;28;20229;-53
2022/09/28 03:08:03;;;;;;;3.47;3.17;;;;;;;-145.23;100.00;58621.06;4980725;28;20754;-53
2022/09/28 03:10:33;;;;;;;6.47;3.67;;;;;;;-145.23;100.00;58621.06;4976844;28;20734;-56
2022/09/28 03:13:00;;;;;;;4.30;3.27;;;;;;;-145.23;100.00;58621.06;4982844;28;20242;-51
2022/09/28 03:15:28;;;;;;;4.27;3.70;;;;;;;-145.23;100.00;58621.06;4982559;28;20839;-53
2022/09/28 03:17:56;;;;;;;4.53;4.13;;;;;;;-145.23;100.00;58621.06;4978363;28;20233;-52
2022/09/28 03:20:23;;;;;;;3.97;3.67;;;;;;;-145.23;100.00;58621.06;4982051;28;20233;-51
2022/09/28 03:22:50;;;;;;;3.53;3.23;;;;;;;-145.23;100.00;58621.06;4981731;28;20231;-53
2022/09/28 03:25:16;;;;;;;4.03;3.67;;;;;;;-145.23;100.00;58621.06;4981727;28;20241;-52
2022/09/28 03:27:43;;;;;;;4.27;3.63;;;;;;;-145.23;100.00;58621.06;4980945;28;20238;-50
2022/09/28 03:30:10;;;;;;;7.63;4.43;;;;;;;-145.23;100.00;58621.06;4981364;28;20277;-53
2022/09/28 03:32:37;;;;;;;4.07;3.67;;;;;;;-145.23;100.00;58621.06;4980759;28;20740;-51
2022/09/28 03:35:06;;;;;;;5.07;4.17;;;;;;;-145.23;100.00;58621.06;4975163;28;20230;-50
2022/09/28 03:37:33;;;;;;;4.50;4.10;;;;;;;-145.23;100.00;58621.06;4978720;28;20704;-52
2022/09/28 03:39:59;;;;;;;4.57;4.13;;;;;;;-145.23;100.00;58621.06;4976542;28;20249;-51
2022/09/28 03:42:26;;;;;;;4.37;3.93;;;;;;;-145.23;100.00;58621.06;4977143;28;20242;-51
2022/09/28 03:44:52;;;;;;;6.00;4.27;;;;;;;-145.23;100.00;58621.06;4976320;28;20237;-53
2022/09/28 03:47:20;;;;;;;4.83;3.77;;;;;;;-145.23;100.00;58621.06;4977441;28;20234;-51
2022/09/28 03:49:46;;;;;;;6.27;3.97;;;;;;;-145.23;100.00;58621.06;4973291;28;20226;-51
2022/09/28 03:52:14;;;;;;;4.57;4.17;;;;;;;-145.23;100.00;58621.06;4982061;28;20234;-51
2022/09/28 03:54:41;;;;;;;5.07;4.33;;;;;;;-145.23;100.00;58621.06;4988884;28;20222;-53
2022/09/28 03:57:07;;;;;;;4.30;3.90;;;;;;;-145.23;100.00;58621.06;4990989;28;20604;-50
2022/09/28 03:59:36;;;;;;;5.30;4.80;;;;;;;-145.23;100.00;58621.06;4981625;28;20291;-51
2022/09/28 04:02:03;;;;;;;4.77;4.37;;;;;;;-145.23;100.00;58621.06;4979460;28;20297;-52
2022/09/28 04:04:30;;;;;;;4.90;4.30;;;;;;;-145.23;100.00;58621.06;4983882;28;20855;-51
2022/09/28 04:06:56;;;;;;;4.80;4.23;;;;;;;-145.23;100.00;58621.06;4983600;28;20329;-51
2022/09/28 04:09:24;;;;;;;4.27;3.87;;;;;;;-145.23;100.00;58621.06;4984893;28;20233;-52
2022/09/28 04:11:51;;;;;;;5.53;5.00;;;;;;;-145.23;100.00;58621.06;4980186;28;21666;-55
2022/09/28 04:14:17;;;;;;;3.23;2.97;;;;;;;-145.23;100.00;58621.06;4986581;28;20249;-51
2022/09/28 04:16:44;;;;;;;4.50;4.10;;;;;;;-145.23;100.00;58621.06;4984550;28;20229;-53
2022/09/28 04:19:10;;;;;;;4.90;4.40;;;;;;;-145.23;100.00;58621.06;4984042;28;20324;-53
2022/09/28 04:21:37;;;;;;;5.47;4.27;;;;;;;-145.23;100.00;58621.06;4981733;28;20233;-51
2022/09/28 04:24:04;;;;;;;5.63;5.07;;;;;;;-145.23;100.00;58621.06;4977928;28;20499;-52
2022/09/28 04:26:32;;;;;;;7.30;6.60;;;;;;;-145.23;100.00;58621.06;4984126;28;20229;-51
2022/09/28 04:29:16;;;;;;;5.03;4.53;;;;;;;-145.23;100.00;58621.06;4982209;28;20710;-52
2022/09/28 04:31:44;;;;;;;4.90;4.40;;;;;;;-145.23;100.00;58621.06;4986446;28;20316;-51
2022/09/28 04:34:11;;;;;;;4.50;4.07;;;;;;;-145.23;100.00;58621.06;4984578;28;20234;-50
2022/09/28 04:36:37;;;;;;;4.93;4.43;;;;;;;-145.23;100.00;58621.06;4976322;28;20234;-52
2022/09/28 04:39:05;;;;;;;4.57;4.17;;;;;;;-145.23;100.00;58621.06;4976451;28;20241;-51
2022/09/28 04:41:32;;;;;;;6.40;4.93;;;;;;;-145.23;100.00;58621.06;4977898;28;20242;-51
2022/09/28 04:43:59;;;;;;;6.10;4.67;;;;;;;-145.23;100.00;58621.06;4978874;28;20245;-52
2022/09/28 04:46:26;;;;;;;6.87;5.00;;;;;;;-145.23;100.00;58621.06;4978317;28;20227;-50
2022/09/28 04:48:52;;;;;;;8.57;4.70;;;;;;;-145.23;100.00;58621.06;4978243;28;20297;-51
2022/09/28 04:51:19;;;;;;;4.70;4.20;;;;;;;-145.23;100.00;58621.06;4983869;28;20245;-50
2022/09/28 04:53:45;;;;;;;5.83;5.30;;;;;;;-145.23;100.00;58621.06;4985296;28;20792;-52
2022/09/28 04:56:13;;;;;;;4.93;4.47;;;;;;;-145.23;100.00;58621.06;4977462;28;20250;-51
2022/09/28 04:58:41;;;;;;;4.93;4.17;;;;;;;-145.23;100.00;58621.06;4978747;28;20803;-52
2022/09/28 05:01:10;;;;;;;5.57;5.07;;;;;;;-145.23;100.00;58621.06;4979148;28;20231;-51
2022/09/28 05:03:36;;;;;;;7.83;5.83;;;;;;;-145.23;100.00;58621.06;4980585;28;20241;-52
2022/09/28 05:06:03;;;;;;;5.80;5.20;;;;;;;-145.23;100.00;58621.06;4982346;28;20632;-54
2022/09/28 05:08:30;;;;;;;5.60;5.00;;;;;;;-145.23;100.00;58621.06;4977082;28;20237;-52
2022/09/28 05:10:57;;;;;;;6.17;4.70;;;;;;;-145.23;100.00;58621.06;4979034;28;20248;-51
2022/09/28 05:13:23;;;;;;;5.97;4.67;;;;;;;-145.23;100.00;58621.06;4974750;28;20246;-53
2022/09/28 05:15:53;;;;;;;5.70;5.10;;;;;;;-145.23;100.00;58621.06;4973052;28;20280;-53
2022/09/28 05:18:20;;;;;;;5.63;4.47;;;;;;;-145.23;100.00;58621.06;4976877;28;20230;-52
2022/09/28 05:20:46;;;;;;;4.90;4.43;;;;;;;-145.23;100.00;58621.06;4974295;28;20234;-51
2022/09/28 05:23:14;;;;;;;7.07;4.90;;;;;;;-145.23;100.00;58621.06;4982327;28;20250;-51
2022/09/28 05:25:41;;;;;;;5.80;4.57;;;;;;;-145.23;100.00;58621.06;4980129;28;20238;-52
2022/09/28 05:28:07;;;;;;;5.47;4.97;;;;;;;-145.23;100.00;58621.06;4980630;28;20234;-51
2022/09/28 05:30:35;;;;;;;5.67;5.07;;;;;;;-145.23;100.00;58621.06;4982522;28;20738;-53
2022/09/28 05:33:03;;;;;;;6.67;5.17;;;;;;;-145.23;100.00;58621.06;4981727;28;20265;-53
2022/09/28 05:35:30;;;;;;;5.13;4.63;;;;;;;-145.23;100.00;58621.06;4980283;28;20226;-52
2022/09/28 05:37:56;;;;;;;5.80;5.17;;;;;;;-145.23;100.00;58621.06;4979053;28;20230;-53
2022/09/28 05:40:23;;;;;;;6.87;5.70;;;;;;;-145.23;100.00;58621.06;4977548;28;20240;-52
2022/09/28 05:42:49;;;;;;;6.13;5.40;;;;;;;-145.23;100.00;58621.06;4978324;28;20241;-52
2022/09/28 05:45:16;;;;;;;5.10;4.60;;;;;;;-145.23;100.00;58621.06;4982899;28;20288;-51
2022/09/28 05:47:44;;;;;;;6.63;5.37;;;;;;;-145.23;100.00;58621.06;4979312;28;20739;-49
2022/09/28 05:50:14;;;;;;;4.93;4.40;;;;;;;-145.23;100.00;58621.06;4974661;28;20720;-51
2022/09/28 05:52:42;;;;;;;5.50;4.90;;;;;;;-145.23;100.00;58621.06;4982681;28;20742;-51
2022/09/28 05:55:09;;;;;;;5.23;4.73;;;;;;;-145.23;100.00;58621.06;4983150;28;20245;-52
2022/09/28 05:57:36;;;;;;;5.10;4.50;;;;;;;-145.23;100.00;58621.06;4979135;28;20234;-53
2022/09/28 06:00:03;;;;;;;5.43;4.93;;;;;;;-145.23;100.00;58621.06;4972394;28;20241;-53
2022/09/28 06:02:29;;;;;;;5.53;4.87;;;;;;;-145.23;100.00;58621.06;4980476;28;20234;-50
2022/09/28 06:04:55;;;;;;;8.87;5.77;;;;;;;-145.23;100.00;58621.06;4981146;28;20230;-51
2022/09/28 06:07:23;;;;;;;8.83;4.93;;;;;;;-145.23;100.00;58621.06;4983222;28;20236;-51
2022/09/28 06:09:50;;;;;;;4.77;4.27;;;;;;;-145.23;100.00;58621.06;4976994;28;20240;-52
2022/09/28 06:12:16;;;;;;;7.07;4.57;;;;;;;-145.23;100.00;58621.06;4981193;28;20238;-51
2022/09/28 06:14:43;;;;;;;6.13;4.30;;;;;;;-145.23;100.00;58621.06;4975130;28;20239;-52
2022/09/28 06:17:10;;;;;;;5.57;4.93;;;;;;;-145.23;100.00;58621.06;4980085;28;20237;-52
2022/09/28 06:19:36;;;;;;;5.90;5.30;;;;;;;-145.23;100.00;58621.06;4975808;28;20709;-53
2022/09/28 06:22:02;;;;;;;7.60;5.13;;;;;;;-145.23;100.00;58621.06;4982496;28;20735;-52
2022/09/28 06:24:30;;;;;;;5.67;4.93;;;;;;;-145.23;100.00;58621.06;4981429;28;20249;-51
2022/09/28 06:26:57;;;;;;;8.67;6.03;;;;;;;-145.23;100.00;58621.06;4978978;28;20289;-54
2022/09/28 06:29:23;;;;;;;6.17;4.93;;;;;;;-145.23;100.00;58621.06;4976125;28;20761;-51
2022/09/28 06:31:50;;;;;;;5.57;5.03;;;;;;;-145.23;100.00;58621.06;4977579;28;20238;-51
2022/09/28 06:34:17;;;;;;;8.27;5.17;;;;;;;-145.23;100.00;58621.06;4979538;28;20242;-53
2022/09/28 06:36:44;;;;;;;5.57;5.00;;;;;;;-145.23;100.00;58621.06;4978616;28;20234;-51
2022/09/28 06:39:10;;;;;;;6.77;5.70;;;;;;;-145.23;100.00;58621.06;4984780;28;20222;-51
2022/09/28 06:41:38;;;;;;;5.90;5.20;;;;;;;-145.23;100.00;58621.06;4980345;28;20716;-52
2022/09/28 06:44:05;;;;;;;5.90;5.30;;;;;;;-145.23;100.00;58621.06;4984045;28;20242;-51
2022/09/28 06:46:31;;;;;;;6.20;5.27;;;;;;;-145.23;100.00;58621.06;4979892;28;20241;-52
2022/09/28 06:48:58;;;;;;;6.37;4.97;;;;;;;-145.23;100.00;58621.06;4976266;28;20234;-51
2022/09/28 06:51:24;;;;;;;6.47;4.80;;;;;;;-145.23;100.00;58621.06;4979925;28;20314;-51
2022/09/28 06:53:52;;;;;;;6.30;5.70;;;;;;;-145.23;100.00;58621.06;4976648;28;20807;-51
2022/09/28 06:56:19;;;;;;;7.40;5.80;;;;;;;-145.23;100.00;58621.06;4984142;28;20260;-52
2022/09/28 06:58:48;;;;;;;6.77;5.70;;;;;;;-145.23;100.00;58621.06;4979088;28;20236;-52
2022/09/28 07:01:14;;;;;;;7.17;5.47;;;;;;;-145.23;100.00;58621.06;4977949;28;20631;-52
2022/09/28 07:03:40;;;;;;;7.63;6.17;;;;;;;-145.23;100.00;58621.06;4978723;28;20726;-52
2022/09/28 07:06:10;;;;;;;7.87;6.23;;;;;;;-145.23;100.00;58621.06;4975571;28;20289;-52
2022/09/28 07:08:36;;;;;;;8.43;6.00;;;;;;;-145.23;100.00;58621.06;4982000;28;20234;-51
2022/09/28 07:11:06;;;;;;;6.03;5.40;;;;;;;-145.23;100.00;58621.06;4981717;28;20234;-50
2022/09/28 07:13:33;;;;;;;7.43;5.57;;;;;;;-145.23;100.00;58621.06;4985218;28;20236;-55
2022/09/28 07:16:01;;;;;;;7.07;6.37;;;;;;;-145.23;100.00;58621.06;4982533;28;20234;-50
2022/09/28 07:18:28;;;;;;;8.57;6.40;;;;;;;-145.23;100.00;58621.06;4979040;28;20236;-51
2022/09/28 07:20:56;;;;;;;7.97;6.87;;;;;;;-145.23;100.00;58621.06;4980149;28;20238;-51
2022/09/28 07:23:25;;;;;;;6.27;5.67;;;;;;;-145.23;100.00;58621.06;4980790;28;20264;-52
2022/09/28 07:25:51;;;;;;;6.03;5.07;;;;;;;-145.23;100.00;58621.06;4980883;28;20325;-51
2022/09/28 07:28:19;;;;;;;6.53;5.63;;;;;;;-145.23;100.00;58621.06;4974061;28;20230;-52
2022/09/28 07:30:45;;;;;;;8.70;6.90;;;;;;;-145.23;100.00;58621.06;4982011;28;20258;-50
2022/09/28 07:33:15;;;;;;;11.07;7.30;;;;;;;-145.23;100.00;58621.06;4980141;28;20258;-53
2022/09/28 07:35:50;;;;;;;7.73;6.93;;;;;;;-145.23;100.00;58621.06;4974880;28;20285;-51
2022/09/28 07:38:16;;;;;;;8.33;6.17;;;;;;;-145.23;100.00;58621.06;4981394;28;20249;-52
2022/09/28 07:43:27;;;;;;;7.73;6.47;;;;;;;-145.23;100.00;58621.06;4977176;28;20285;-52
2022/09/28 07:45:54;;;;;;;8.20;6.97;;;;;;;-145.23;100.00;58621.06;4976623;28;20734;-51
2022/09/28 07:48:22;;;;;;;10.43;6.63;;;;;;;-145.23;100.00;58621.06;4976974;28;20736;-51
2022/09/28 07:50:50;;;;;;;8.30;6.47;;;;;;;-145.23;100.00;58621.06;4971170;28;20226;-51
2022/09/28 07:53:17;;;;;;;7.37;6.27;;;;;;;-145.23;100.00;58621.06;4977584;28;20594;-52
2022/09/28 07:55:44;;;;;;;10.53;6.27;;;;;;;-145.23;100.00;58621.06;4982558;28;20226;-52
2022/09/28 07:58:10;;;;;;;9.70;6.23;;;;;;;-145.23;100.00;58621.06;4981309;28;20266;-52
2022/09/28 08:00:37;;;;;;;7.37;6.67;;;;;;;-145.23;100.00;58621.06;4979698;28;20242;-51
2022/09/28 08:03:03;;;;;;;7.43;6.73;;;;;;;-145.23;100.00;58621.06;4979915;28;20245;-53
2022/09/28 08:05:34;;;;;;;7.93;6.57;;;;;;;-145.23;100.00;58621.06;4978816;28;20238;-53
2022/09/28 08:08:02;;;;;;;6.80;6.10;;;;;;;-145.23;100.00;58621.06;4979438;28;20929;-53
2022/09/28 08:10:28;;;;;;;8.07;7.10;;;;;;;-145.23;100.00;58621.06;4981016;28;20240;-51
2022/09/28 08:12:55;;;;;;;6.40;5.80;;;;;;;-145.23;100.00;58621.06;4978918;28;20245;-54
2022/09/28 08:15:22;;;;;;;6.77;6.07;;;;;;;-145.23;100.00;58621.06;4981342;28;20221;-51
2022/09/28 08:17:49;;;;;;;8.47;6.23;;;;;;;-145.23;100.00;58621.06;4978050;28;20230;-53
2022/09/28 08:23:04;;;;;;;7.60;6.27;;;;;;;-145.23;100.00;58621.06;4979649;28;20248;-52
2022/09/28 08:25:30;;;;;;;9.37;7.20;;;;;;;-145.23;100.00;58621.06;4978040;28;20240;-52
2022/09/28 08:27:57;;;;;;;8.77;7.43;;;;;;;-145.23;100.00;58621.06;4980889;28;20242;-52
2022/09/28 08:30:23;;;;;;;7.70;6.90;;;;;;;-145.23;100.00;58621.06;4977956;28;20237;-55
2022/09/28 08:32:49;;;;;;;9.23;6.63;;;;;;;-145.23;100.00;58621.06;4982681;28;20952;-52
2022/09/28 08:35:16;;;;;;;6.63;5.97;;;;;;;-145.23;100.00;58621.06;4985505;28;20230;-53
2022/09/28 08:37:43;;;;;;;6.23;5.73;;;;;;;-145.23;100.00;58621.06;4983010;28;20230;-50
2022/09/28 08:40:13;;;;;;;8.63;5.80;;;;;;;-145.23;100.00;58621.06;4989401;28;20241;-50
2022/09/28 08:42:42;;;;;;;6.73;6.13;;;;;;;-145.23;100.00;58621.06;4975122;28;20242;-51
2022/09/28 08:45:11;;;;;;;7.07;6.40;;;;;;;-145.23;100.00;58621.06;4978805;28;20241;-52
2022/09/28 08:50:31;;;;;;;7.13;5.97;;;;;;;-145.23;100.00;58621.06;4977149;28;20241;-51
2022/09/28 08:52:59;;;;;;;6.77;6.17;;;;;;;-145.23;100.00;58621.06;4982735;28;20249;-51
2022/09/28 08:55:30;;;;;;;6.90;6.10;;;;;;;-145.23;100.00;58621.06;4978899;28;20235;-51
2022/09/28 08:57:59;;;;;;;7.30;6.53;;;;;;;-145.23;100.00;58621.06;4980979;28;20675;-52
2022/09/28 09:00:32;;;;;;;8.10;7.30;;;;;;;-145.23;100.00;58621.06;4986220;28;20242;-51
2022/09/28 09:02:59;;;;;;;7.20;6.43;;;;;;;-145.23;100.00;58621.06;4980364;28;20326;-51
2022/09/28 09:05:41;;;;;;;7.57;6.83;;;;;;;-145.23;100.00;58621.06;4981423;28;20242;-51
2022/09/28 09:08:21;;;;;;;7.27;6.57;;;;;;;-145.23;100.00;58621.06;4987208;28;20250;-52
2022/09/28 09:10:52;;;;;;;6.50;5.90;;;;;;;-145.23;100.00;58621.06;4982257;28;20231;-50
2022/09/28 09:13:49;;;;;;;6.97;6.27;;;;;;;-145.23;100.00;58621.06;4982920;28;20237;-51
2022/09/28 09:16:25;;;;;;;7.10;5.47;;;;;;;-145.23;100.00;58621.06;4960824;28;21180;-50
2022/09/28 09:18:55;;;;;;;6.13;5.63;;;;;;;-145.23;100.00;58621.06;4980812;28;20244;-51
2022/09/28 09:21:38;;;;;;;5.50;5.00;;;;;;;-145.23;100.00;58621.06;4985864;28;20250;-51
2022/09/28 09:24:26;;;;;;;6.00;5.37;;;;;;;-145.23;100.00;58621.06;4983413;28;20245;-51
2022/09/28 09:27:01;;;;;;;4.60;3.90;;;;;;;-145.23;100.00;58621.06;4922289;29;22104;-52
2022/09/28 09:29:35;;;;;;;7.38;5.28;;;;;;;-145.23;100.00;58621.06;4927404;29;20240;-55
2022/09/28 09:32:14;;;;;;;4.53;4.13;;;;;;;-145.23;100.00;58621.06;4924946;29;20872;-51
2022/09/28 09:35:03;;;;;;;4.70;4.30;;;;;;;-145.23;100.00;58621.06;4927282;29;20240;-59
2022/09/28 09:37:45;;;;;;;5.10;4.22;;;;;;;-145.23;100.00;58621.06;4922876;29;20232;-54
2022/09/28 09:40:27;;;;;;;4.40;4.00;;;;;;;-145.23;100.00;58621.06;4917045;29;20247;-51
2022/09/28 09:43:06;;;;;;;5.17;4.63;;;;;;;-145.23;100.00;58621.06;4919412;29;20263;-54
2022/09/28 09:45:49;;;;;;;6.28;3.30;;;;;;;-145.23;100.00;58621.06;4919530;29;20236;-54
2022/09/28 09:48:20;;;;;;;4.23;3.70;;;;;;;-145.23;100.00;58621.06;4919317;29;20247;-53
2022/09/28 09:50:50;;;;;;;4.05;3.25;;;;;;;-145.23;100.00;58621.06;4916143;29;20229;-51
2022/09/28 09:53:23;;;;;;;3.80;3.23;;;;;;;-145.23;100.00;58621.06;4923125;29;20258;-52
2022/09/28 09:55:56;;;;;;;5.00;3.40;;;;;;;-145.23;100.00;58621.06;4915645;29;20236;-51
2022/09/28 09:58:26;;;;;;;3.28;2.97;;;;;;;-145.23;100.00;58621.06;4919796;29;20248;-51
2022/09/28 10:00:54;;;;;;;4.43;2.90;;;;;;;-145.23;100.00;58621.06;4919964;29;20240;-51
2022/09/28 10:03:22;;;;;;;2.70;2.50;;;;;;;-145.23;100.00;58621.06;4928157;28;20241;-52
2022/09/28 10:05:55;;;;;;;3.25;2.92;;;;;;;-145.23;100.00;58621.06;4981301;28;20752;-52
2022/09/28 10:08:22;;;;;;;4.30;2.70;;;;;;;-145.23;100.00;58621.06;4975009;28;20242;-54
2022/09/28 10:10:51;;;;;;;2.63;2.42;;;;;;;-145.23;100.00;58621.06;4976866;28;20755;-53
2022/09/28 10:13:17;;;;;;;2.03;1.90;;;;;;;-145.23;100.00;58621.06;4977229;28;20712;-51
2022/09/28 10:15:46;;;;;;;2.53;1.70;;;;;;;-145.23;100.00;58621.06;4979754;28;20735;-52
2022/09/28 10:18:15;;;;;;;2.35;1.35;;;;;;;-145.23;100.00;58621.06;4979676;28;20360;-51
2022/09/28 10:20:44;;;;;;;2.73;2.00;;;;;;;-145.23;100.00;58621.06;4977886;28;20257;-51
2022/09/28 10:23:17;;;;;;;3.20;1.65;;;;;;;-145.23;100.00;58621.06;4974743;28;20234;-53
2022/09/28 10:25:46;;;;;;;6.63;2.55;;;;;;;-145.23;100.00;58621.06;4985027;28;20230;-51
2022/09/28 10:28:17;;;;;;;2.63;1.70;;;;;;;-145.23;100.00;58621.06;4977059;28;20238;-50
2022/09/28 10:30:45;;;;;;;2.37;2.17;;;;;;;-145.23;100.00;58621.06;4981655;28;20318;-53
2022/09/28 10:33:28;;;;;;;4.10;1.80;;;;;;;-145.23;100.00;58621.06;4977294;28;20747;-52
2022/09/28 10:35:54;;;;;;;2.17;1.83;;;;;;;-145.23;100.00;58621.06;4983557;28;20254;-51
2022/09/28 10:38:23;;;;;;;1.70;1.60;;;;;;;-145.23;100.00;58621.06;4982425;28;20229;-54
2022/09/28 10:40:53;;;;;;;1.77;1.60;;;;;;;-145.23;100.00;58621.06;4980569;28;20313;-52
2022/09/28 10:43:22;;;;;;;3.77;1.70;;;;;;;-145.23;100.00;58621.06;4974419;28;20248;-51
2022/09/28 10:46:00;;;;;;;2.03;1.67;;;;;;;-145.23;100.00;58621.06;4977092;28;20234;-51
2022/09/28 10:48:27;;;;;;;3.77;1.87;;;;;;;-145.23;100.00;58621.06;4974560;28;20265;-52
2022/09/28 10:51:03;;;;;;;2.27;1.43;;;;;;;-145.23;100.00;58621.06;4976601;28;20950;-50
2022/09/28 10:53:30;;;;;;;5.27;1.27;;;;;;;-145.23;100.00;58621.06;4980082;28;20780;-50
2022/09/28 10:55:59;;;;;;;3.80;1.50;;;;;;;-145.23;100.00;58621.06;4978756;28;20268;-53
2022/09/28 10:58:28;;;;;;;3.93;1.17;;;;;;;-145.23;100.00;58621.06;4981950;28;20242;-52
2022/09/28 11:01:01;;;;;;;3.00;1.30;;;;;;;-145.23;100.00;58621.06;4982793;28;20237;-51
2022/09/28 11:03:29;;;;;;;1.17;1.07;;;;;;;-145.23;100.00;58621.06;4988010;28;20229;-52
2022/09/28 11:05:58;;;;;;;2.50;1.50;;;;;;;-145.23;100.00;58621.06;4986270;28;20305;-53
2022/09/28 11:08:28;;;;;;;1.80;1.50;;;;;;;-145.23;100.00;58621.06;4988578;28;20217;-51
2022/09/28 11:11:07;;;;;;;1.90;1.80;;;;;;;-145.23;100.00;58621.06;4988529;28;20202;-52
2022/09/28 11:13:42;;;;;;;3.60;2.13;;;;;;;-145.23;100.00;58621.06;4992825;23;20237;-56
2022/09/28 11:16:19;;;;;;;2.70;2.40;;;;;;;-145.23;100.00;58621.06;4985709;28;20260;-56
2022/09/28 11:18:45;;;;;;;3.03;2.50;;;;;;;-145.23;100.00;58621.06;4985990;28;20673;-55
2022/09/28 11:21:15;;;;;;;2.30;1.90;;;;;;;-145.23;100.00;58621.06;4983273;28;20230;-56
2022/09/28 11:23:43;;;;;;;2.10;1.83;;;;;;;-145.23;100.00;58621.06;4976228;28;20226;-56
2022/09/28 11:26:11;;;;;;;1.83;1.73;;;;;;;-145.23;100.00;58621.06;4964771;28;20234;-56
2022/09/28 11:28:41;;;;;;;2.10;2.00;;;;;;;-145.23;100.00;58621.06;4959034;28;20696;-55